sensor_id;sensor_type;location;lat;lon;timestamp;P1;durP1;ratioP1;P2;durP2;ratioP2
3841;SDS011;1936;47.074;15.336;2023-08-24T00:01:22;14.20;;;12.53;;
3841;SDS011;1936;47.074;15.336;2023-08-24T00:03:25;14.63;;;13.23;;
3841;SDS011;1936;47.074;15.336;2023-08-24T00:05:32;13.60;;;12.30;;
3841;SDS011;1936;47.074;15.336;2023-08-24T00:07:35;18.10;;;11.80;;
3841;SDS011;1936;47.074;15.336;2023-08-24T00:09:39;13.73;;;11.67;;
3841;SDS011;1936;47.074;15.336;2023-08-24T00:11:43;16.60;;;13.90;;
3841;SDS011;1936;47.074;15.336;2023-08-24T00:13:47;14.60;;;13.10;;
3841;SDS011;1936;47.074;15.336;2023-08-24T00:15:53;13.80;;;12.30;;
3841;SDS011;1936;47.074;15.336;2023-08-24T00:17:56;14.83;;;13.23;;
3841;SDS011;1936;47.074;15.336;2023-08-24T00:20:00;12.60;;;11.40;;
3841;SDS011;1936;47.074;15.336;2023-08-24T00:22:06;18.90;;;12.73;;
3841;SDS011;1936;47.074;15.336;2023-08-24T00:24:09;14.50;;;12.67;;
3841;SDS011;1936;47.074;15.336;2023-08-24T00:26:12;14.87;;;13.43;;
3841;SDS011;1936;47.074;15.336;2023-08-24T00:28:20;14.00;;;12.63;;
3841;SDS011;1936;47.074;15.336;2023-08-24T00:30:24;17.00;;;15.10;;
3841;SDS011;1936;47.074;15.336;2023-08-24T00:32:27;14.73;;;13.07;;
3841;SDS011;1936;47.074;15.336;2023-08-24T00:34:30;26.63;;;14.13;;
3841;SDS011;1936;47.074;15.336;2023-08-24T00:36:33;14.67;;;13.17;;
3841;SDS011;1936;47.074;15.336;2023-08-24T00:38:36;13.83;;;11.93;;
3841;SDS011;1936;47.074;15.336;2023-08-24T00:40:41;13.87;;;12.50;;
3841;SDS011;1936;47.074;15.336;2023-08-24T00:42:43;11.93;;;10.83;;
3841;SDS011;1936;47.074;15.336;2023-08-24T00:44:49;12.60;;;11.20;;
3841;SDS011;1936;47.074;15.336;2023-08-24T00:46:52;15.83;;;13.80;;
3841;SDS011;1936;47.074;15.336;2023-08-24T00:48:56;13.10;;;11.80;;
3841;SDS011;1936;47.074;15.336;2023-08-24T00:51:00;12.50;;;11.03;;
3841;SDS011;1936;47.074;15.336;2023-08-24T00:53:04;14.33;;;12.87;;
3841;SDS011;1936;47.074;15.336;2023-08-24T00:55:07;16.53;;;13.80;;
3841;SDS011;1936;47.074;15.336;2023-08-24T00:57:11;13.53;;;12.23;;
3841;SDS011;1936;47.074;15.336;2023-08-24T00:59:14;12.93;;;11.73;;
3841;SDS011;1936;47.074;15.336;2023-08-24T01:01:19;14.57;;;13.13;;
3841;SDS011;1936;47.074;15.336;2023-08-24T01:03:23;14.03;;;12.70;;
3841;SDS011;1936;47.074;15.336;2023-08-24T01:05:26;14.63;;;11.20;;
3841;SDS011;1936;47.074;15.336;2023-08-24T01:07:30;14.63;;;11.87;;
3841;SDS011;1936;47.074;15.336;2023-08-24T01:09:34;14.23;;;12.90;;
3841;SDS011;1936;47.074;15.336;2023-08-24T01:11:41;25.77;;;14.50;;
3841;SDS011;1936;47.074;15.336;2023-08-24T01:13:53;13.37;;;11.97;;
3841;SDS011;1936;47.074;15.336;2023-08-24T01:16:04;13.20;;;11.20;;
3841;SDS011;1936;47.074;15.336;2023-08-24T01:18:14;14.67;;;12.33;;
3841;SDS011;1936;47.074;15.336;2023-08-24T01:20:20;13.43;;;12.23;;
3841;SDS011;1936;47.074;15.336;2023-08-24T01:22:29;12.77;;;11.57;;
3841;SDS011;1936;47.074;15.336;2023-08-24T01:24:38;12.40;;;11.10;;
3841;SDS011;1936;47.074;15.336;2023-08-24T01:26:46;13.23;;;11.67;;
3841;SDS011;1936;47.074;15.336;2023-08-24T01:28:52;15.40;;;11.37;;
3841;SDS011;1936;47.074;15.336;2023-08-24T01:30:56;14.70;;;11.90;;
3841;SDS011;1936;47.074;15.336;2023-08-24T01:32:59;14.37;;;12.87;;
3841;SDS011;1936;47.074;15.336;2023-08-24T01:35:06;14.77;;;13.20;;
3841;SDS011;1936;47.074;15.336;2023-08-24T01:37:11;13.70;;;12.03;;
3841;SDS011;1936;47.074;15.336;2023-08-24T01:39:17;14.90;;;11.87;;
3841;SDS011;1936;47.074;15.336;2023-08-24T01:41:29;13.97;;;12.20;;
3841;SDS011;1936;47.074;15.336;2023-08-24T01:43:41;13.87;;;12.60;;
3841;SDS011;1936;47.074;15.336;2023-08-24T01:45:48;14.93;;;13.43;;
3841;SDS011;1936;47.074;15.336;2023-08-24T01:47:52;15.70;;;13.93;;
3841;SDS011;1936;47.074;15.336;2023-08-24T01:49:57;13.70;;;11.93;;
3841;SDS011;1936;47.074;15.336;2023-08-24T01:52:01;16.80;;;13.20;;
3841;SDS011;1936;47.074;15.336;2023-08-24T01:54:05;15.13;;;13.53;;
3841;SDS011;1936;47.074;15.336;2023-08-24T01:56:09;13.53;;;12.30;;
3841;SDS011;1936;47.074;15.336;2023-08-24T01:58:13;14.80;;;11.97;;
3841;SDS011;1936;47.074;15.336;2023-08-24T02:00:18;13.63;;;12.30;;
3841;SDS011;1936;47.074;15.336;2023-08-24T02:02:23;14.93;;;13.67;;
3841;SDS011;1936;47.074;15.336;2023-08-24T02:04:26;12.30;;;11.20;;
3841;SDS011;1936;47.074;15.336;2023-08-24T02:06:30;15.00;;;13.47;;
3841;SDS011;1936;47.074;15.336;2023-08-24T02:08:33;14.03;;;12.33;;
3841;SDS011;1936;47.074;15.336;2023-08-24T02:10:37;15.70;;;14.10;;
3841;SDS011;1936;47.074;15.336;2023-08-24T02:12:40;14.80;;;12.33;;
3841;SDS011;1936;47.074;15.336;2023-08-24T02:14:43;14.03;;;12.57;;
3841;SDS011;1936;47.074;15.336;2023-08-24T02:16:48;14.70;;;13.27;;
3841;SDS011;1936;47.074;15.336;2023-08-24T02:18:51;20.60;;;12.63;;
3841;SDS011;1936;47.074;15.336;2023-08-24T02:20:55;16.17;;;13.03;;
3841;SDS011;1936;47.074;15.336;2023-08-24T02:22:58;14.83;;;12.50;;
3841;SDS011;1936;47.074;15.336;2023-08-24T02:25:01;13.90;;;11.60;;
3841;SDS011;1936;47.074;15.336;2023-08-24T02:27:06;13.10;;;11.67;;
3841;SDS011;1936;47.074;15.336;2023-08-24T02:29:10;15.30;;;12.37;;
3841;SDS011;1936;47.074;15.336;2023-08-24T02:31:13;18.33;;;13.77;;
3841;SDS011;1936;47.074;15.336;2023-08-24T02:33:19;15.67;;;13.20;;
3841;SDS011;1936;47.074;15.336;2023-08-24T02:35:21;17.43;;;13.73;;
3841;SDS011;1936;47.074;15.336;2023-08-24T02:37:24;16.23;;;14.33;;
3841;SDS011;1936;47.074;15.336;2023-08-24T02:39:27;16.07;;;14.30;;
3841;SDS011;1936;47.074;15.336;2023-08-24T02:41:30;16.43;;;14.73;;
3841;SDS011;1936;47.074;15.336;2023-08-24T02:43:33;22.37;;;13.07;;
3841;SDS011;1936;47.074;15.336;2023-08-24T02:45:37;14.60;;;12.50;;
3841;SDS011;1936;47.074;15.336;2023-08-24T02:47:40;16.20;;;14.60;;
3841;SDS011;1936;47.074;15.336;2023-08-24T02:49:45;17.73;;;13.60;;
3841;SDS011;1936;47.074;15.336;2023-08-24T02:51:47;16.70;;;13.90;;
3841;SDS011;1936;47.074;15.336;2023-08-24T02:53:51;16.07;;;13.00;;
3841;SDS011;1936;47.074;15.336;2023-08-24T02:55:53;20.60;;;13.43;;
3841;SDS011;1936;47.074;15.336;2023-08-24T02:57:56;15.83;;;14.13;;
3841;SDS011;1936;47.074;15.336;2023-08-24T03:00:00;14.83;;;13.07;;
3841;SDS011;1936;47.074;15.336;2023-08-24T03:02:04;16.70;;;12.23;;
3841;SDS011;1936;47.074;15.336;2023-08-24T03:04:08;14.37;;;12.37;;
3841;SDS011;1936;47.074;15.336;2023-08-24T03:06:12;15.67;;;13.67;;
3841;SDS011;1936;47.074;15.336;2023-08-24T03:08:15;14.50;;;13.30;;
3841;SDS011;1936;47.074;15.336;2023-08-24T03:10:19;16.50;;;13.10;;
3841;SDS011;1936;47.074;15.336;2023-08-24T03:12:22;15.10;;;13.60;;
3841;SDS011;1936;47.074;15.336;2023-08-24T03:14:25;15.17;;;13.73;;
3841;SDS011;1936;47.074;15.336;2023-08-24T03:16:29;15.03;;;12.70;;
3841;SDS011;1936;47.074;15.336;2023-08-24T03:18:32;19.63;;;14.70;;
3841;SDS011;1936;47.074;15.336;2023-08-24T03:20:35;16.27;;;14.40;;
3841;SDS011;1936;47.074;15.336;2023-08-24T03:22:40;15.93;;;14.30;;
3841;SDS011;1936;47.074;15.336;2023-08-24T03:24:43;15.43;;;14.10;;
3841;SDS011;1936;47.074;15.336;2023-08-24T03:26:47;14.83;;;13.17;;
3841;SDS011;1936;47.074;15.336;2023-08-24T03:28:50;15.37;;;13.93;;
3841;SDS011;1936;47.074;15.336;2023-08-24T03:30:53;17.37;;;15.13;;
3841;SDS011;1936;47.074;15.336;2023-08-24T03:32:57;15.43;;;13.93;;
3841;SDS011;1936;47.074;15.336;2023-08-24T03:35:01;17.83;;;13.53;;
3841;SDS011;1936;47.074;15.336;2023-08-24T03:37:04;20.43;;;14.83;;
3841;SDS011;1936;47.074;15.336;2023-08-24T03:39:09;13.90;;;12.60;;
3841;SDS011;1936;47.074;15.336;2023-08-24T03:41:13;16.70;;;13.47;;
3841;SDS011;1936;47.074;15.336;2023-08-24T03:43:16;21.20;;;15.30;;
3841;SDS011;1936;47.074;15.336;2023-08-24T03:45:19;13.87;;;12.50;;
3841;SDS011;1936;47.074;15.336;2023-08-24T03:47:23;16.10;;;14.50;;
3841;SDS011;1936;47.074;15.336;2023-08-24T03:49:26;15.53;;;13.90;;
3841;SDS011;1936;47.074;15.336;2023-08-24T03:51:30;14.73;;;13.33;;
3841;SDS011;1936;47.074;15.336;2023-08-24T03:53:33;15.23;;;13.47;;
3841;SDS011;1936;47.074;15.336;2023-08-24T03:55:38;16.00;;;14.40;;
3841;SDS011;1936;47.074;15.336;2023-08-24T03:57:41;16.43;;;14.70;;
3841;SDS011;1936;47.074;15.336;2023-08-24T03:59:45;21.20;;;14.17;;
3841;SDS011;1936;47.074;15.336;2023-08-24T04:01:47;16.83;;;15.00;;
3841;SDS011;1936;47.074;15.336;2023-08-24T04:03:50;15.73;;;14.10;;
3841;SDS011;1936;47.074;15.336;2023-08-24T04:05:54;23.03;;;14.80;;
3841;SDS011;1936;47.074;15.336;2023-08-24T04:07:57;16.97;;;15.33;;
3841;SDS011;1936;47.074;15.336;2023-08-24T04:10:01;16.33;;;14.73;;
3841;SDS011;1936;47.074;15.336;2023-08-24T04:12:08;15.10;;;13.60;;
3841;SDS011;1936;47.074;15.336;2023-08-24T04:14:11;17.37;;;15.30;;
3841;SDS011;1936;47.074;15.336;2023-08-24T04:16:15;16.13;;;14.63;;
3841;SDS011;1936;47.074;15.336;2023-08-24T04:18:18;16.50;;;14.73;;
3841;SDS011;1936;47.074;15.336;2023-08-24T04:20:22;16.40;;;14.80;;
3841;SDS011;1936;47.074;15.336;2023-08-24T04:22:24;16.00;;;14.47;;
3841;SDS011;1936;47.074;15.336;2023-08-24T04:24:27;15.83;;;14.07;;
3841;SDS011;1936;47.074;15.336;2023-08-24T04:26:31;15.87;;;14.27;;
3841;SDS011;1936;47.074;15.336;2023-08-24T04:28:35;18.07;;;16.20;;
3841;SDS011;1936;47.074;15.336;2023-08-24T04:30:39;20.17;;;15.57;;
3841;SDS011;1936;47.074;15.336;2023-08-24T04:32:41;17.40;;;14.13;;
3841;SDS011;1936;47.074;15.336;2023-08-24T04:34:44;17.70;;;15.30;;
3841;SDS011;1936;47.074;15.336;2023-08-24T04:36:48;15.97;;;14.27;;
3841;SDS011;1936;47.074;15.336;2023-08-24T04:38:51;16.20;;;14.60;;
3841;SDS011;1936;47.074;15.336;2023-08-24T04:40:55;17.77;;;16.00;;
3841;SDS011;1936;47.074;15.336;2023-08-24T04:42:59;16.40;;;14.77;;
3841;SDS011;1936;47.074;15.336;2023-08-24T04:45:04;19.07;;;13.70;;
3841;SDS011;1936;47.074;15.336;2023-08-24T04:47:09;15.63;;;14.03;;
3841;SDS011;1936;47.074;15.336;2023-08-24T04:49:12;14.17;;;12.87;;
3841;SDS011;1936;47.074;15.336;2023-08-24T04:51:15;15.70;;;14.10;;
3841;SDS011;1936;47.074;15.336;2023-08-24T04:53:19;16.57;;;13.83;;
3841;SDS011;1936;47.074;15.336;2023-08-24T04:55:22;15.97;;;14.40;;
3841;SDS011;1936;47.074;15.336;2023-08-24T04:57:26;14.70;;;13.40;;
3841;SDS011;1936;47.074;15.336;2023-08-24T04:59:29;16.17;;;14.47;;
3841;SDS011;1936;47.074;15.336;2023-08-24T05:01:34;20.30;;;13.50;;
3841;SDS011;1936;47.074;15.336;2023-08-24T05:03:37;14.73;;;13.10;;
3841;SDS011;1936;47.074;15.336;2023-08-24T05:05:40;14.43;;;12.67;;
3841;SDS011;1936;47.074;15.336;2023-08-24T05:07:43;15.10;;;13.50;;
3841;SDS011;1936;47.074;15.336;2023-08-24T05:09:46;17.60;;;13.90;;
3841;SDS011;1936;47.074;15.336;2023-08-24T05:11:50;16.63;;;15.00;;
3841;SDS011;1936;47.074;15.336;2023-08-24T05:13:53;15.77;;;14.10;;
3841;SDS011;1936;47.074;15.336;2023-08-24T05:15:56;14.77;;;13.43;;
3841;SDS011;1936;47.074;15.336;2023-08-24T05:18:01;17.23;;;13.57;;
3841;SDS011;1936;47.074;15.336;2023-08-24T05:20:05;16.73;;;13.57;;
3841;SDS011;1936;47.074;15.336;2023-08-24T05:22:09;14.83;;;13.33;;
3841;SDS011;1936;47.074;15.336;2023-08-24T05:24:13;16.00;;;13.43;;
3841;SDS011;1936;47.074;15.336;2023-08-24T05:26:16;16.87;;;12.80;;
3841;SDS011;1936;47.074;15.336;2023-08-24T05:28:24;13.40;;;12.10;;
3841;SDS011;1936;47.074;15.336;2023-08-24T05:30:26;12.90;;;11.70;;
3841;SDS011;1936;47.074;15.336;2023-08-24T05:32:30;14.30;;;12.97;;
3841;SDS011;1936;47.074;15.336;2023-08-24T05:34:35;16.17;;;11.90;;
3841;SDS011;1936;47.074;15.336;2023-08-24T05:36:38;12.40;;;10.70;;
3841;SDS011;1936;47.074;15.336;2023-08-24T05:38:42;12.73;;;10.90;;
3841;SDS011;1936;47.074;15.336;2023-08-24T05:40:51;11.50;;;10.50;;
3841;SDS011;1936;47.074;15.336;2023-08-24T05:42:54;12.03;;;10.90;;
3841;SDS011;1936;47.074;15.336;2023-08-24T05:44:58;12.33;;;10.70;;
3841;SDS011;1936;47.074;15.336;2023-08-24T05:47:01;12.40;;;11.10;;
3841;SDS011;1936;47.074;15.336;2023-08-24T05:49:04;12.90;;;9.93;;
3841;SDS011;1936;47.074;15.336;2023-08-24T05:51:09;11.63;;;10.50;;
3841;SDS011;1936;47.074;15.336;2023-08-24T05:53:14;13.87;;;11.97;;
3841;SDS011;1936;47.074;15.336;2023-08-24T05:55:17;11.17;;;10.17;;
3841;SDS011;1936;47.074;15.336;2023-08-24T05:57:20;12.83;;;9.80;;
3841;SDS011;1936;47.074;15.336;2023-08-24T05:59:24;11.37;;;10.27;;
3841;SDS011;1936;47.074;15.336;2023-08-24T06:01:26;11.97;;;10.40;;
3841;SDS011;1936;47.074;15.336;2023-08-24T06:03:30;10.70;;;9.60;;
3841;SDS011;1936;47.074;15.336;2023-08-24T06:05:33;10.90;;;9.77;;
3841;SDS011;1936;47.074;15.336;2023-08-24T06:07:39;10.10;;;9.10;;
3841;SDS011;1936;47.074;15.336;2023-08-24T06:09:41;11.17;;;9.90;;
3841;SDS011;1936;47.074;15.336;2023-08-24T06:11:44;12.70;;;9.20;;
3841;SDS011;1936;47.074;15.336;2023-08-24T06:13:48;11.83;;;8.40;;
3841;SDS011;1936;47.074;15.336;2023-08-24T06:15:53;10.33;;;8.63;;
3841;SDS011;1936;47.074;15.336;2023-08-24T06:17:57;8.87;;;7.90;;
3841;SDS011;1936;47.074;15.336;2023-08-24T06:20:02;9.70;;;8.17;;
3841;SDS011;1936;47.074;15.336;2023-08-24T06:22:06;9.23;;;8.30;;
3841;SDS011;1936;47.074;15.336;2023-08-24T06:24:11;9.20;;;8.03;;
3841;SDS011;1936;47.074;15.336;2023-08-24T06:26:14;11.73;;;7.77;;
3841;SDS011;1936;47.074;15.336;2023-08-24T06:28:18;13.03;;;9.17;;
3841;SDS011;1936;47.074;15.336;2023-08-24T06:30:20;9.37;;;8.47;;
3841;SDS011;1936;47.074;15.336;2023-08-24T06:32:24;8.50;;;7.10;;
3841;SDS011;1936;47.074;15.336;2023-08-24T06:34:26;9.10;;;7.63;;
3841;SDS011;1936;47.074;15.336;2023-08-24T06:36:29;8.07;;;7.27;;
3841;SDS011;1936;47.074;15.336;2023-08-24T06:38:33;8.50;;;7.70;;
3841;SDS011;1936;47.074;15.336;2023-08-24T06:40:38;8.00;;;7.20;;
3841;SDS011;1936;47.074;15.336;2023-08-24T06:42:42;7.67;;;6.70;;
3841;SDS011;1936;47.074;15.336;2023-08-24T06:44:45;7.50;;;6.90;;
3841;SDS011;1936;47.074;15.336;2023-08-24T06:46:51;8.93;;;6.77;;
3841;SDS011;1936;47.074;15.336;2023-08-24T06:48:54;10.50;;;6.87;;
3841;SDS011;1936;47.074;15.336;2023-08-24T06:50:58;10.27;;;7.17;;
3841;SDS011;1936;47.074;15.336;2023-08-24T06:53:00;11.33;;;6.83;;
3841;SDS011;1936;47.074;15.336;2023-08-24T06:55:04;9.50;;;6.90;;
3841;SDS011;1936;47.074;15.336;2023-08-24T06:57:10;9.47;;;7.50;;
3841;SDS011;1936;47.074;15.336;2023-08-24T06:59:13;7.90;;;7.10;;
3841;SDS011;1936;47.074;15.336;2023-08-24T07:01:17;8.10;;;7.27;;
3841;SDS011;1936;47.074;15.336;2023-08-24T07:03:20;13.00;;;7.50;;
3841;SDS011;1936;47.074;15.336;2023-08-24T07:05:23;8.70;;;7.40;;
3841;SDS011;1936;47.074;15.336;2023-08-24T07:07:26;8.97;;;6.43;;
3841;SDS011;1936;47.074;15.336;2023-08-24T07:09:29;7.47;;;6.77;;
3841;SDS011;1936;47.074;15.336;2023-08-24T07:11:32;7.23;;;6.60;;
3841;SDS011;1936;47.074;15.336;2023-08-24T07:13:37;6.93;;;6.33;;
3841;SDS011;1936;47.074;15.336;2023-08-24T07:15:40;6.27;;;5.73;;
3841;SDS011;1936;47.074;15.336;2023-08-24T07:17:44;6.93;;;6.33;;
3841;SDS011;1936;47.074;15.336;2023-08-24T07:19:47;8.80;;;6.37;;
3841;SDS011;1936;47.074;15.336;2023-08-24T07:21:51;7.93;;;5.70;;
3841;SDS011;1936;47.074;15.336;2023-08-24T07:23:54;6.60;;;5.90;;
3841;SDS011;1936;47.074;15.336;2023-08-24T07:25:58;7.53;;;6.63;;
3841;SDS011;1936;47.074;15.336;2023-08-24T07:28:02;6.87;;;6.27;;
3841;SDS011;1936;47.074;15.336;2023-08-24T07:30:08;9.07;;;6.73;;
3841;SDS011;1936;47.074;15.336;2023-08-24T07:32:32;7.63;;;6.10;;
3841;SDS011;1936;47.074;15.336;2023-08-24T07:34:36;8.33;;;6.43;;
3841;SDS011;1936;47.074;15.336;2023-08-24T07:36:39;6.37;;;5.87;;
3841;SDS011;1936;47.074;15.336;2023-08-24T07:38:44;6.83;;;5.67;;
3841;SDS011;1936;47.074;15.336;2023-08-24T07:40:48;6.17;;;5.67;;
3841;SDS011;1936;47.074;15.336;2023-08-24T07:42:51;6.40;;;5.90;;
3841;SDS011;1936;47.074;15.336;2023-08-24T07:44:56;6.90;;;5.97;;
3841;SDS011;1936;47.074;15.336;2023-08-24T07:47:01;7.07;;;6.03;;
3841;SDS011;1936;47.074;15.336;2023-08-24T07:49:04;6.70;;;5.30;;
3841;SDS011;1936;47.074;15.336;2023-08-24T07:51:08;7.37;;;5.53;;
3841;SDS011;1936;47.074;15.336;2023-08-24T07:53:11;6.80;;;6.23;;
3841;SDS011;1936;47.074;15.336;2023-08-24T07:55:15;7.10;;;6.60;;
3841;SDS011;1936;47.074;15.336;2023-08-24T07:57:18;7.10;;;5.83;;
3841;SDS011;1936;47.074;15.336;2023-08-24T07:59:22;7.17;;;6.57;;
3841;SDS011;1936;47.074;15.336;2023-08-24T08:01:25;7.63;;;5.90;;
3841;SDS011;1936;47.074;15.336;2023-08-24T08:03:30;7.93;;;6.00;;
3841;SDS011;1936;47.074;15.336;2023-08-24T08:05:33;7.03;;;6.10;;
3841;SDS011;1936;47.074;15.336;2023-08-24T08:07:37;6.27;;;5.77;;
3841;SDS011;1936;47.074;15.336;2023-08-24T08:09:41;5.87;;;5.43;;
3841;SDS011;1936;47.074;15.336;2023-08-24T08:11:45;7.23;;;5.30;;
3841;SDS011;1936;47.074;15.336;2023-08-24T08:13:48;6.57;;;6.03;;
3841;SDS011;1936;47.074;15.336;2023-08-24T08:15:51;7.33;;;5.43;;
3841;SDS011;1936;47.074;15.336;2023-08-24T08:17:55;5.97;;;5.50;;
3841;SDS011;1936;47.074;15.336;2023-08-24T08:20:00;6.53;;;5.90;;
3841;SDS011;1936;47.074;15.336;2023-08-24T08:22:04;6.47;;;5.73;;
3841;SDS011;1936;47.074;15.336;2023-08-24T08:24:10;5.43;;;4.93;;
3841;SDS011;1936;47.074;15.336;2023-08-24T08:26:25;5.30;;;4.57;;
3841;SDS011;1936;47.074;15.336;2023-08-24T08:28:28;6.13;;;4.80;;
3841;SDS011;1936;47.074;15.336;2023-08-24T08:30:34;5.83;;;5.43;;
3841;SDS011;1936;47.074;15.336;2023-08-24T08:32:38;10.47;;;5.30;;
3841;SDS011;1936;47.074;15.336;2023-08-24T08:34:41;6.23;;;5.30;;
3841;SDS011;1936;47.074;15.336;2023-08-24T08:36:46;6.63;;;5.80;;
3841;SDS011;1936;47.074;15.336;2023-08-24T08:38:50;5.40;;;4.90;;
3841;SDS011;1936;47.074;15.336;2023-08-24T08:40:54;9.47;;;4.47;;
3841;SDS011;1936;47.074;15.336;2023-08-24T08:43:04;5.97;;;5.47;;
3841;SDS011;1936;47.074;15.336;2023-08-24T08:45:08;5.63;;;5.23;;
3841;SDS011;1936;47.074;15.336;2023-08-24T08:47:13;7.87;;;5.77;;
3841;SDS011;1936;47.074;15.336;2023-08-24T08:49:16;5.97;;;5.20;;
3841;SDS011;1936;47.074;15.336;2023-08-24T08:51:21;6.00;;;5.40;;
3841;SDS011;1936;47.074;15.336;2023-08-24T08:53:26;8.13;;;5.43;;
3841;SDS011;1936;47.074;15.336;2023-08-24T08:55:30;6.07;;;5.57;;
3841;SDS011;1936;47.074;15.336;2023-08-24T08:57:34;6.47;;;5.77;;
3841;SDS011;1936;47.074;15.336;2023-08-24T08:59:38;6.57;;;5.97;;
3841;SDS011;1936;47.074;15.336;2023-08-24T09:01:41;7.37;;;6.60;;
3841;SDS011;1936;47.074;15.336;2023-08-24T09:03:47;6.60;;;6.20;;
3841;SDS011;1936;47.074;15.336;2023-08-24T09:05:51;9.33;;;6.73;;
3841;SDS011;1936;47.074;15.336;2023-08-24T09:07:55;6.53;;;5.93;;
3841;SDS011;1936;47.074;15.336;2023-08-24T09:10:02;8.20;;;5.50;;
3841;SDS011;1936;47.074;15.336;2023-08-24T09:12:08;6.83;;;5.90;;
3841;SDS011;1936;47.074;15.336;2023-08-24T09:14:11;7.00;;;6.30;;
3841;SDS011;1936;47.074;15.336;2023-08-24T09:16:14;6.77;;;6.10;;
3841;SDS011;1936;47.074;15.336;2023-08-24T09:18:19;8.10;;;6.43;;
3841;SDS011;1936;47.074;15.336;2023-08-24T09:20:23;5.50;;;5.10;;
3841;SDS011;1936;47.074;15.336;2023-08-24T09:22:33;7.20;;;6.30;;
3841;SDS011;1936;47.074;15.336;2023-08-24T09:24:37;10.40;;;6.23;;
3841;SDS011;1936;47.074;15.336;2023-08-24T09:26:42;6.00;;;5.50;;
3841;SDS011;1936;47.074;15.336;2023-08-24T09:28:46;9.97;;;5.80;;
3841;SDS011;1936;47.074;15.336;2023-08-24T09:30:51;6.50;;;5.90;;
3841;SDS011;1936;47.074;15.336;2023-08-24T09:32:56;6.40;;;5.80;;
3841;SDS011;1936;47.074;15.336;2023-08-24T09:35:06;6.50;;;6.00;;
3841;SDS011;1936;47.074;15.336;2023-08-24T09:37:14;6.60;;;6.00;;
3841;SDS011;1936;47.074;15.336;2023-08-24T09:39:18;7.07;;;6.27;;
3841;SDS011;1936;47.074;15.336;2023-08-24T09:41:22;6.00;;;5.60;;
3841;SDS011;1936;47.074;15.336;2023-08-24T09:43:26;6.33;;;5.67;;
3841;SDS011;1936;47.074;15.336;2023-08-24T09:45:33;5.57;;;5.07;;
3841;SDS011;1936;47.074;15.336;2023-08-24T09:47:36;5.77;;;5.20;;
3841;SDS011;1936;47.074;15.336;2023-08-24T09:49:40;6.27;;;5.70;;
3841;SDS011;1936;47.074;15.336;2023-08-24T09:51:43;6.13;;;5.60;;
3841;SDS011;1936;47.074;15.336;2023-08-24T09:53:47;5.40;;;4.53;;
3841;SDS011;1936;47.074;15.336;2023-08-24T09:55:53;6.53;;;4.90;;
3841;SDS011;1936;47.074;15.336;2023-08-24T09:57:58;5.57;;;5.17;;
3841;SDS011;1936;47.074;15.336;2023-08-24T10:00:05;5.57;;;5.17;;
3841;SDS011;1936;47.074;15.336;2023-08-24T10:02:14;5.30;;;4.90;;
3841;SDS011;1936;47.074;15.336;2023-08-24T10:04:24;7.97;;;5.33;;
3841;SDS011;1936;47.074;15.336;2023-08-24T10:06:27;6.33;;;4.80;;
3841;SDS011;1936;47.074;15.336;2023-08-24T10:08:32;5.33;;;4.83;;
3841;SDS011;1936;47.074;15.336;2023-08-24T10:10:38;5.03;;;4.63;;
3841;SDS011;1936;47.074;15.336;2023-08-24T10:12:46;7.70;;;5.53;;
3841;SDS011;1936;47.074;15.336;2023-08-24T10:14:53;7.77;;;5.13;;
3841;SDS011;1936;47.074;15.336;2023-08-24T10:17:03;5.60;;;5.10;;
3841;SDS011;1936;47.074;15.336;2023-08-24T10:19:07;4.80;;;4.57;;
3841;SDS011;1936;47.074;15.336;2023-08-24T10:21:11;5.57;;;4.80;;
3841;SDS011;1936;47.074;15.336;2023-08-24T10:23:14;5.53;;;4.83;;
3841;SDS011;1936;47.074;15.336;2023-08-24T10:25:19;5.17;;;4.67;;
3841;SDS011;1936;47.074;15.336;2023-08-24T10:27:24;5.47;;;4.50;;
3841;SDS011;1936;47.074;15.336;2023-08-24T10:29:31;8.57;;;4.77;;
3841;SDS011;1936;47.074;15.336;2023-08-24T10:31:35;10.93;;;5.70;;
3841;SDS011;1936;47.074;15.336;2023-08-24T10:33:40;7.10;;;4.53;;
3841;SDS011;1936;47.074;15.336;2023-08-24T10:35:45;6.33;;;5.03;;
3841;SDS011;1936;47.074;15.336;2023-08-24T10:37:51;5.83;;;5.33;;
3841;SDS011;1936;47.074;15.336;2023-08-24T10:39:55;6.10;;;5.50;;
3841;SDS011;1936;47.074;15.336;2023-08-24T10:41:59;6.67;;;5.70;;
3841;SDS011;1936;47.074;15.336;2023-08-24T10:44:05;6.03;;;5.57;;
3841;SDS011;1936;47.074;15.336;2023-08-24T10:46:13;8.93;;;6.40;;
3841;SDS011;1936;47.074;15.336;2023-08-24T10:48:18;6.30;;;5.87;;
3841;SDS011;1936;47.074;15.336;2023-08-24T10:50:23;6.40;;;5.90;;
3841;SDS011;1936;47.074;15.336;2023-08-24T10:52:30;8.77;;;6.43;;
3841;SDS011;1936;47.074;15.336;2023-08-24T10:54:34;9.50;;;5.90;;
3841;SDS011;1936;47.074;15.336;2023-08-24T10:56:51;6.37;;;5.73;;
3841;SDS011;1936;47.074;15.336;2023-08-24T10:59:09;6.00;;;5.40;;
3841;SDS011;1936;47.074;15.336;2023-08-24T11:01:16;6.63;;;5.83;;
3841;SDS011;1936;47.074;15.336;2023-08-24T11:03:30;6.33;;;5.73;;
3841;SDS011;1936;47.074;15.336;2023-08-24T11:05:36;5.60;;;5.00;;
3841;SDS011;1936;47.074;15.336;2023-08-24T11:07:47;4.97;;;4.50;;
3841;SDS011;1936;47.074;15.336;2023-08-24T11:09:50;11.93;;;5.10;;
3841;SDS011;1936;47.074;15.336;2023-08-24T11:11:57;5.60;;;5.07;;
3841;SDS011;1936;47.074;15.336;2023-08-24T11:18:45;4.83;;;4.40;;
3841;SDS011;1936;47.074;15.336;2023-08-24T11:20:50;7.63;;;4.93;;
3841;SDS011;1936;47.074;15.336;2023-08-24T11:22:55;7.40;;;4.73;;
3841;SDS011;1936;47.074;15.336;2023-08-24T11:24:59;5.00;;;4.43;;
3841;SDS011;1936;47.074;15.336;2023-08-24T11:27:03;5.07;;;4.43;;
3841;SDS011;1936;47.074;15.336;2023-08-24T11:29:06;5.60;;;4.90;;
3841;SDS011;1936;47.074;15.336;2023-08-24T11:31:10;4.83;;;4.37;;
3841;SDS011;1936;47.074;15.336;2023-08-24T11:33:14;5.57;;;4.50;;
3841;SDS011;1936;47.074;15.336;2023-08-24T11:35:18;5.97;;;5.03;;
3841;SDS011;1936;47.074;15.336;2023-08-24T11:37:26;5.37;;;4.60;;
3841;SDS011;1936;47.074;15.336;2023-08-24T11:39:29;4.80;;;4.40;;
3841;SDS011;1936;47.074;15.336;2023-08-24T11:41:34;6.27;;;4.73;;
3841;SDS011;1936;47.074;15.336;2023-08-24T11:43:37;7.83;;;5.00;;
3841;SDS011;1936;47.074;15.336;2023-08-24T11:45:40;5.50;;;5.00;;
3841;SDS011;1936;47.074;15.336;2023-08-24T11:47:43;5.60;;;4.80;;
3841;SDS011;1936;47.074;15.336;2023-08-24T11:49:47;5.37;;;4.87;;
3841;SDS011;1936;47.074;15.336;2023-08-24T11:51:50;6.13;;;5.53;;
3841;SDS011;1936;47.074;15.336;2023-08-24T11:53:55;6.40;;;5.90;;
3841;SDS011;1936;47.074;15.336;2023-08-24T11:55:59;5.67;;;5.20;;
3841;SDS011;1936;47.074;15.336;2023-08-24T11:58:13;7.37;;;6.30;;
3841;SDS011;1936;47.074;15.336;2023-08-24T12:00:17;5.10;;;4.63;;
3841;SDS011;1936;47.074;15.336;2023-08-24T12:02:22;5.57;;;5.17;;
3841;SDS011;1936;47.074;15.336;2023-08-24T12:04:26;6.53;;;5.07;;
3841;SDS011;1936;47.074;15.336;2023-08-24T12:06:29;5.57;;;5.17;;
3841;SDS011;1936;47.074;15.336;2023-08-24T12:08:36;6.03;;;5.10;;
3841;SDS011;1936;47.074;15.336;2023-08-24T12:10:44;5.00;;;4.60;;
3841;SDS011;1936;47.074;15.336;2023-08-24T12:12:47;6.10;;;5.00;;
3841;SDS011;1936;47.074;15.336;2023-08-24T12:14:52;5.13;;;4.83;;
3841;SDS011;1936;47.074;15.336;2023-08-24T12:16:54;6.00;;;5.50;;
3841;SDS011;1936;47.074;15.336;2023-08-24T12:18:58;5.27;;;4.97;;
3841;SDS011;1936;47.074;15.336;2023-08-24T12:21:04;7.07;;;6.30;;
3841;SDS011;1936;47.074;15.336;2023-08-24T12:23:10;6.80;;;6.30;;
3841;SDS011;1936;47.074;15.336;2023-08-24T12:25:12;8.20;;;5.60;;
3841;SDS011;1936;47.074;15.336;2023-08-24T12:27:19;6.20;;;5.60;;
3841;SDS011;1936;47.074;15.336;2023-08-24T12:29:24;6.93;;;6.33;;
3841;SDS011;1936;47.074;15.336;2023-08-24T12:31:26;9.00;;;6.23;;
3841;SDS011;1936;47.074;15.336;2023-08-24T12:33:31;6.53;;;5.87;;
3841;SDS011;1936;47.074;15.336;2023-08-24T12:35:34;6.77;;;6.07;;